createdAt,value
2023-01-13T00:00:08.974Z,25.56
2023-01-13T00:01:08.954Z,25.15
2023-01-13T00:02:08.986Z,25.76
2023-01-13T00:03:08.913Z,25.76
2023-01-13T00:04:08.914Z,26.27
2023-01-13T00:05:08.922Z,26.68
2023-01-13T00:06:08.880Z,26.48
2023-01-13T00:07:08.864Z,25.96
2023-01-13T00:08:08.857Z,25.35
2023-01-13T00:09:08.853Z,26.89
2023-01-13T00:10:08.816Z,27.91
2023-01-13T00:11:08.814Z,27.70
2023-01-13T00:12:08.796Z,29.34
2023-01-13T00:13:08.786Z,31.69
2023-01-13T00:14:08.788Z,32.40
2023-01-13T00:15:08.824Z,33.43
2023-01-13T00:16:08.817Z,33.33
2023-01-13T00:17:08.727Z,34.25
2023-01-13T00:18:08.708Z,36.90
2023-01-13T00:19:08.716Z,35.99
2023-01-13T00:20:08.715Z,36.29
2023-01-13T00:21:08.693Z,37.31
2023-01-13T00:22:08.658Z,37.52
2023-01-13T00:23:08.643Z,38.85
2023-01-13T00:24:08.652Z,38.75
2023-01-13T00:25:08.625Z,38.03
2023-01-13T00:26:08.613Z,38.13
2023-01-13T00:27:08.617Z,39.99
2023-01-13T00:28:08.575Z,39.87
2023-01-13T00:29:08.576Z,39.97
2023-01-13T00:30:08.552Z,40.79
2023-01-13T00:31:08.650Z,40.38
2023-01-13T00:32:08.545Z,39.26
2023-01-13T00:33:08.508Z,39.36
2023-01-13T00:34:08.516Z,39.78
2023-01-13T00:35:08.491Z,39.26
2023-01-13T00:36:08.482Z,38.23
2023-01-13T00:37:08.456Z,38.04
2023-01-13T00:38:08.449Z,37.63
2023-01-13T00:39:08.443Z,38.35
2023-01-13T00:40:08.414Z,38.45
2023-01-13T00:41:08.425Z,37.63
2023-01-13T00:42:08.391Z,41.01
2023-01-13T00:43:08.385Z,41.93
2023-01-13T00:44:08.378Z,41.63
2023-01-13T00:45:08.338Z,42.65
2023-01-13T00:46:08.421Z,43.16
2023-01-13T00:47:08.320Z,43.37
2023-01-13T00:48:08.317Z,44.29
2023-01-13T00:49:08.293Z,44.79
2023-01-13T00:50:08.280Z,44.79
2023-01-13T00:51:08.259Z,46.74
2023-01-13T00:52:08.251Z,46.33
2023-01-13T00:53:08.240Z,45.10
2023-01-13T00:54:08.220Z,44.59
2023-01-13T00:55:08.221Z,46.44
2023-01-13T00:56:08.183Z,46.84
2023-01-13T00:57:08.173Z,47.97
2023-01-13T00:58:08.181Z,51.45
2023-01-13T00:59:08.170Z,51.04
2023-01-13T01:00:08.153Z,52.06
2023-01-13T01:01:08.231Z,51.24
2023-01-13T01:02:08.256Z,52.47
2023-01-13T01:03:08.110Z,54.61
2023-01-13T01:04:08.102Z,53.49
2023-01-13T01:05:08.092Z,52.87
2023-01-13T01:06:08.053Z,56.35
2023-01-13T01:07:08.040Z,59.01
2023-01-13T01:08:08.034Z,59.94
2023-01-13T01:09:08.061Z,58.50
2023-01-13T01:10:08.011Z,58.20
2023-01-13T01:11:08.010Z,60.55
2023-01-13T01:12:07.986Z,59.73
2023-01-13T01:13:07.966Z,59.32
2023-01-13T01:14:07.964Z,58.81
2023-01-13T01:15:07.952Z,60.55
2023-01-13T01:16:07.954Z,60.03
2023-01-13T01:17:07.918Z,58.29
2023-01-13T01:18:07.892Z,59.01
2023-01-13T01:19:07.873Z,57.99
2023-01-13T01:20:07.886Z,57.58
2023-01-13T01:21:07.862Z,58.61
2023-01-13T01:22:07.864Z,58.50
2023-01-13T01:23:07.835Z,58.70
2023-01-13T01:24:07.812Z,59.42
2023-01-13T01:25:07.823Z,59.73
2023-01-13T01:26:07.795Z,59.42
2023-01-13T01:27:07.774Z,60.14
2023-01-13T01:28:07.763Z,60.14
2023-01-13T01:29:07.744Z,60.14
2023-01-13T01:30:07.737Z,60.44
2023-01-13T01:31:07.779Z,61.36
2023-01-13T01:32:07.709Z,63.51
2023-01-13T01:33:07.699Z,63.00
2023-01-13T01:34:07.675Z,64.13
2023-01-13T01:35:07.677Z,65.77
2023-01-13T01:36:07.643Z,67.19
2023-01-13T01:37:07.624Z,68.32
2023-01-13T01:38:07.627Z,69.75
2023-01-13T01:39:07.605Z,68.22
2023-01-13T01:40:07.601Z,68.52
2023-01-13T01:41:07.592Z,67.71
2023-01-13T01:42:07.762Z,70.78
2023-01-13T01:43:07.556Z,69.96
2023-01-13T01:44:07.590Z,74.66
2023-01-13T01:45:07.872Z,75.38
2023-01-13T01:46:07.499Z,74.46
2023-01-13T01:47:07.535Z,74.66
2023-01-13T01:48:07.515Z,76.71
2023-01-13T01:49:07.476Z,79.47
2023-01-13T01:50:07.476Z,79.37
2023-01-13T01:51:07.454Z,79.06
2023-01-13T01:52:07.458Z,79.06
2023-01-13T01:53:07.470Z,80.08
2023-01-13T01:54:07.402Z,79.47
2023-01-13T01:55:07.409Z,78.17
2023-01-13T01:56:07.368Z,79.00
2023-01-13T01:57:07.362Z,79.20
2023-01-13T01:58:07.351Z,79.10
2023-01-13T01:59:07.339Z,78.69
2023-01-13T02:00:07.346Z,77.26
2023-01-13T02:01:07.520Z,77.46
2023-01-13T02:02:07.388Z,76.84
2023-01-13T02:03:07.284Z,76.13
2023-01-13T02:04:07.282Z,78.79
2023-01-13T02:05:07.270Z,79.64
2023-01-13T02:06:07.230Z,80.67
2023-01-13T02:07:07.223Z,81.29
2023-01-13T02:08:07.200Z,84.36
2023-01-13T02:09:07.192Z,84.56
2023-01-13T02:10:07.213Z,84.77
2023-01-13T02:11:07.170Z,85.99
2023-01-13T02:13:16.981Z,88.04
2023-01-13T02:14:16.953Z,87.22
2023-01-13T02:15:16.984Z,89.68
2023-01-13T02:16:17.031Z,90.75
2023-01-13T02:17:16.917Z,90.75
2023-01-13T02:18:16.917Z,90.34
2023-01-13T02:19:16.916Z,91.77
2023-01-13T02:20:16.918Z,91.16
2023-01-13T02:21:16.863Z,91.26
2023-01-13T02:22:16.874Z,91.26
2023-01-13T02:23:16.853Z,92.38
2023-01-13T02:24:16.826Z,91.97
2023-01-13T02:25:16.809Z,90.54
2023-01-13T02:26:16.840Z,90.75
2023-01-13T02:27:16.787Z,92.69
2023-01-13T02:28:16.761Z,91.46
2023-01-13T02:29:16.767Z,93.66
2023-01-13T02:30:16.737Z,94.43
2023-01-13T02:31:16.770Z,94.43
2023-01-13T02:32:16.720Z,95.61
2023-01-13T02:33:16.717Z,94.78
2023-01-13T02:34:16.684Z,94.78
2023-01-13T02:35:16.677Z,93.76
2023-01-13T02:36:16.684Z,96.12
2023-01-13T02:37:16.661Z,94.89
2023-01-13T02:38:16.638Z,95.61
2023-01-13T02:39:16.626Z,94.68
2023-01-13T02:40:16.618Z,94.17
2023-01-13T02:41:16.619Z,95.50
2023-01-13T02:42:16.587Z,94.68
2023-01-13T02:43:16.576Z,94.01
2023-01-13T02:44:16.556Z,93.80
2023-01-13T02:45:16.543Z,94.42
2023-01-13T02:46:16.548Z,93.49
2023-01-13T02:47:16.527Z,92.78
2023-01-13T02:48:16.520Z,93.60
2023-01-13T02:49:16.501Z,93.60
2023-01-13T02:50:16.475Z,93.49
2023-01-13T02:51:16.486Z,93.64
2023-01-13T02:52:16.469Z,93.08
2023-01-13T02:53:16.466Z,92.78
2023-01-13T02:54:16.425Z,92.78
2023-01-13T02:55:16.449Z,92.72
2023-01-13T02:56:16.436Z,92.31
2023-01-13T02:57:16.386Z,91.80
2023-01-13T02:58:16.384Z,92.41
2023-01-13T02:59:16.352Z,92.21
2023-01-13T03:00:16.273Z,92.41
2023-01-13T03:01:16.317Z,91.90
2023-01-13T03:02:16.500Z,92.10
2023-01-13T03:03:16.207Z,92.31
2023-01-13T03:04:16.196Z,91.49
2023-01-13T03:05:16.188Z,90.97
2023-01-13T03:06:16.186Z,90.77
2023-01-13T03:07:16.156Z,89.95
2023-01-13T03:08:16.144Z,89.75
2023-01-13T03:09:16.140Z,90.36
2023-01-13T03:10:16.115Z,90.09
2023-01-13T03:11:16.115Z,88.96
2023-01-13T03:12:16.097Z,89.17
2023-01-13T03:13:16.080Z,88.56
2023-01-13T03:14:16.066Z,88.14
2023-01-13T03:15:16.058Z,88.04
2023-01-13T03:16:16.097Z,87.73
2023-01-13T03:17:16.028Z,88.24
2023-01-13T03:18:16.028Z,87.73
2023-01-13T03:19:16.011Z,87.22
2023-01-13T03:20:15.998Z,86.09
2023-01-13T03:21:15.987Z,87.26
2023-01-13T03:22:15.969Z,86.33
2023-01-13T03:23:15.968Z,85.93
2023-01-13T03:24:15.940Z,85.21
2023-01-13T03:25:15.938Z,84.59
2023-01-13T03:26:15.931Z,86.03
2023-01-13T03:27:15.898Z,86.03
2023-01-13T03:28:15.881Z,86.24
2023-01-13T03:29:15.868Z,86.44
2023-01-13T03:30:15.847Z,84.08
2023-01-13T03:31:15.877Z,85.72
2023-01-13T03:32:15.826Z,85.00
2023-01-13T03:33:15.817Z,85.11
2023-01-13T03:34:15.798Z,85.62
2023-01-13T03:35:15.786Z,85.00
2023-01-13T03:36:15.784Z,84.49
2023-01-13T03:37:15.771Z,85.11
2023-01-13T03:38:15.764Z,85.21
2023-01-13T03:39:15.745Z,84.90
2023-01-13T03:40:15.718Z,85.41
2023-01-13T03:41:15.847Z,84.80
2023-01-13T03:42:15.705Z,84.80
2023-01-13T03:43:15.683Z,84.18
2023-01-13T03:44:15.669Z,85.41
2023-01-13T03:45:15.658Z,85.00
2023-01-13T03:46:15.708Z,84.69
2023-01-13T03:47:15.679Z,84.18
2023-01-13T03:48:15.623Z,84.28
2023-01-13T03:49:15.602Z,83.98
2023-01-13T03:50:15.590Z,83.56
2023-01-13T03:51:15.603Z,83.56
2023-01-13T03:52:15.560Z,82.84
2023-01-13T03:53:15.560Z,83.05
2023-01-13T03:54:15.568Z,83.40
2023-01-13T03:55:15.535Z,83.26
2023-01-13T03:56:15.558Z,83.67
2023-01-13T03:57:15.516Z,83.70
2023-01-13T03:58:15.591Z,82.78
2023-01-13T03:59:15.483Z,82.33
2023-01-13T04:00:15.458Z,82.89
2023-01-13T04:01:15.572Z,82.78
2023-01-13T04:02:15.472Z,81.76
2023-01-13T04:03:15.422Z,81.65
2023-01-13T04:04:15.406Z,81.96
2023-01-13T04:05:15.393Z,82.27
2023-01-13T04:06:15.399Z,81.86
2023-01-13T04:07:15.359Z,81.96
2023-01-13T04:08:15.354Z,81.96
2023-01-13T04:09:15.360Z,81.24
2023-01-13T04:10:15.330Z,80.11
2023-01-13T04:11:15.333Z,79.49
2023-01-13T04:12:15.292Z,79.39
2023-01-13T04:13:15.285Z,79.60
2023-01-13T04:14:15.275Z,80.32
2023-01-13T04:15:15.261Z,79.49
2023-01-13T04:16:15.264Z,78.30
2023-01-13T04:17:15.238Z,78.81
2023-01-13T04:18:15.246Z,78.30
2023-01-13T04:19:15.212Z,78.40
2023-01-13T04:20:15.203Z,78.71
2023-01-13T04:21:15.192Z,78.09
2023-01-13T04:22:15.166Z,78.78
2023-01-13T04:23:15.182Z,79.49
2023-01-13T04:24:15.136Z,78.88
2023-01-13T04:25:15.125Z,78.67
2023-01-13T04:26:15.131Z,78.67
2023-01-13T04:27:15.103Z,79.70
2023-01-13T04:28:15.095Z,80.42
2023-01-13T04:29:15.838Z,80.01
2023-01-13T04:30:15.081Z,80.52
2023-01-13T04:31:15.114Z,80.11
2023-01-13T04:32:15.042Z,79.19
2023-01-13T04:33:15.033Z,80.21
2023-01-13T04:34:15.002Z,80.01
2023-01-13T04:35:15.000Z,81.04
2023-01-13T04:36:14.986Z,80.93
2023-01-13T04:37:14.971Z,80.52
2023-01-13T04:38:14.959Z,79.29
2023-01-13T04:39:14.955Z,79.19
2023-01-13T04:40:14.935Z,80.11
2023-01-13T04:41:14.927Z,79.39
2023-01-13T04:42:14.925Z,79.70
2023-01-13T04:43:14.897Z,80.01
2023-01-13T04:44:14.868Z,80.01
2023-01-13T04:45:14.867Z,80.42
2023-01-13T04:46:14.888Z,79.80
2023-01-13T04:47:14.857Z,79.29
2023-01-13T04:48:14.820Z,79.25
2023-01-13T04:49:14.837Z,80.07
2023-01-13T04:50:14.796Z,81.04
2023-01-13T04:51:14.814Z,81.24
2023-01-13T04:52:14.791Z,81.41
2023-01-13T04:53:14.764Z,81.00
2023-01-13T04:54:14.737Z,80.90
2023-01-13T04:55:14.743Z,81.51
2023-01-13T04:56:14.715Z,80.18
2023-01-13T04:57:14.717Z,79.87
2023-01-13T04:58:14.688Z,79.05
2023-01-13T04:59:14.684Z,78.85
2023-01-13T05:00:14.672Z,77.40
2023-01-13T05:01:14.750Z,76.58
2023-01-13T05:02:14.747Z,78.78
2023-01-13T05:03:14.641Z,76.31
2023-01-13T05:04:14.618Z,76.21
2023-01-13T05:05:14.611Z,77.55
2023-01-13T05:06:14.588Z,79.08
2023-01-13T05:07:14.589Z,76.42
2023-01-13T05:08:14.561Z,76.93
2023-01-13T05:09:14.549Z,77.23
2023-01-13T05:10:14.532Z,78.47
2023-01-13T05:11:14.523Z,78.88
2023-01-13T05:12:14.520Z,78.47
2023-01-13T05:13:14.516Z,79.08
2023-01-13T05:14:14.478Z,78.27
2023-01-13T05:15:14.477Z,76.93
2023-01-13T05:16:14.462Z,76.31
2023-01-13T05:17:14.489Z,76.00
2023-01-13T05:18:14.429Z,75.18
2023-01-13T05:19:14.612Z,74.57
2023-01-13T05:20:14.418Z,74.15
2023-01-13T05:21:14.392Z,74.15
2023-01-13T05:22:14.403Z,73.33
2023-01-13T05:23:14.375Z,72.96
2023-01-13T05:24:14.342Z,72.24
2023-01-13T05:25:14.352Z,72.13
2023-01-13T05:26:14.321Z,72.34
2023-01-13T05:27:14.329Z,73.47
2023-01-13T05:28:14.289Z,72.85
2023-01-13T05:29:14.277Z,72.31
2023-01-13T05:30:14.296Z,74.08
2023-01-13T05:31:14.323Z,72.85
2023-01-13T05:32:14.265Z,72.92
2023-01-13T05:33:14.232Z,73.06
2023-01-13T05:34:14.218Z,73.16
2023-01-13T05:35:14.192Z,73.88
2023-01-13T05:36:14.181Z,74.70
2023-01-13T05:37:14.206Z,75.32
2023-01-13T05:38:14.152Z,73.98
2023-01-13T05:39:14.152Z,75.08
2023-01-13T05:40:14.124Z,75.08
2023-01-13T05:41:14.154Z,74.67
2023-01-13T05:42:14.123Z,76.21
2023-01-13T05:43:14.092Z,77.44
2023-01-13T05:44:14.072Z,77.34
2023-01-13T05:45:14.078Z,78.27
2023-01-13T05:46:14.105Z,78.57
2023-01-13T05:47:14.075Z,78.27
2023-01-13T05:48:14.036Z,78.27
2023-01-13T05:49:14.012Z,77.13
2023-01-13T05:50:14.001Z,78.36
2023-01-13T05:51:14.021Z,79.08
2023-01-13T05:52:13.995Z,79.49
2023-01-13T05:53:13.960Z,79.60
2023-01-13T05:54:13.942Z,78.88
2023-01-13T05:55:13.935Z,78.36
2023-01-13T05:56:13.934Z,78.57
2023-01-13T05:57:13.981Z,79.29
2023-01-13T05:58:13.894Z,79.70
2023-01-13T05:59:13.900Z,80.42
2023-01-13T06:00:13.863Z,79.39
2023-01-13T06:01:13.907Z,79.29
2023-01-13T06:02:13.865Z,78.88
2023-01-13T06:03:13.852Z,79.80
2023-01-13T06:04:13.857Z,81.76
2023-01-13T06:05:13.822Z,80.63
2023-01-13T06:06:13.793Z,80.42
2023-01-13T06:07:13.788Z,80.38
2023-01-13T06:08:13.754Z,81.45
2023-01-13T06:09:13.748Z,80.93
2023-01-13T06:10:13.746Z,82.37
2023-01-13T06:11:13.726Z,82.57
2023-01-13T06:12:13.723Z,82.54
2023-01-13T06:13:13.695Z,82.43
2023-01-13T06:14:13.675Z,83.05
2023-01-13T06:15:13.669Z,82.75
2023-01-13T06:16:13.726Z,82.54
2023-01-13T06:17:13.657Z,83.15
2023-01-13T06:18:13.616Z,83.05
2023-01-13T06:19:13.625Z,83.05
2023-01-13T06:20:13.617Z,82.95
2023-01-13T06:21:13.617Z,82.54
2023-01-13T06:22:13.596Z,83.19
2023-01-13T06:23:13.576Z,84.01
2023-01-13T06:24:13.556Z,83.81
2023-01-13T06:25:13.539Z,83.87
2023-01-13T06:26:13.531Z,84.22
2023-01-13T06:27:13.522Z,84.18
2023-01-13T06:28:13.512Z,84.01
2023-01-13T06:29:13.497Z,83.70
2023-01-13T06:30:13.464Z,83.29
2023-01-13T06:31:13.513Z,83.09
2023-01-13T06:32:13.458Z,82.57
2023-01-13T06:33:13.421Z,82.78
2023-01-13T06:34:13.424Z,82.27
2023-01-13T06:35:13.399Z,83.19
2023-01-13T06:36:13.397Z,83.40
2023-01-13T06:37:13.391Z,83.50
2023-01-13T06:38:13.360Z,83.81
2023-01-13T06:39:13.347Z,83.29
2023-01-13T06:40:13.329Z,83.09
2023-01-13T06:41:13.363Z,82.89
2023-01-13T06:42:13.348Z,82.37
2023-01-13T06:43:15.792Z,82.78
2023-01-13T06:44:13.284Z,82.37
2023-01-13T06:45:13.444Z,82.37
2023-01-13T06:46:13.313Z,81.65
2023-01-13T06:47:13.245Z,81.96
2023-01-13T06:48:13.242Z,81.96
2023-01-13T06:49:13.221Z,82.27
2023-01-13T06:50:13.207Z,81.14
2023-01-13T06:51:13.194Z,81.76
2023-01-13T06:52:13.179Z,81.14
2023-01-13T06:53:13.179Z,80.63
2023-01-13T06:54:13.142Z,81.14
2023-01-13T06:55:13.142Z,81.76
2023-01-13T06:56:13.111Z,81.65
2023-01-13T06:57:13.121Z,81.55
2023-01-13T06:58:13.120Z,80.63
2023-01-13T06:59:13.096Z,81.14
2023-01-13T07:00:13.113Z,80.93
2023-01-13T07:01:13.235Z,80.93
2023-01-13T07:02:13.142Z,80.83
2023-01-13T07:03:13.062Z,81.04
2023-01-13T07:04:13.026Z,81.14
2023-01-13T07:05:13.001Z,81.24
2023-01-13T07:06:12.996Z,80.93
2023-01-13T07:07:12.994Z,81.76
2023-01-13T07:08:13.161Z,81.55
2023-01-13T07:09:12.953Z,81.65
2023-01-13T07:10:12.938Z,81.24
2023-01-13T07:11:12.929Z,81.45
2023-01-13T07:12:12.902Z,80.93
2023-01-13T07:13:12.922Z,82.37
2023-01-13T07:14:12.873Z,82.47
2023-01-13T07:15:12.884Z,82.78
2023-01-13T07:16:12.903Z,82.99
2023-01-13T07:17:12.843Z,81.86
2023-01-13T07:18:12.855Z,83.61
2023-01-13T07:19:12.820Z,84.01
2023-01-13T07:20:12.805Z,83.50
2023-01-13T07:21:12.844Z,84.01
2023-01-13T07:22:12.792Z,85.04
2023-01-13T07:23:12.784Z,83.40
2023-01-13T07:24:12.752Z,84.42
2023-01-13T07:25:12.743Z,84.47
2023-01-13T07:26:12.723Z,84.05
2023-01-13T07:27:12.717Z,84.74
2023-01-13T07:28:12.731Z,84.94
2023-01-13T07:29:12.683Z,85.35
2023-01-13T07:30:12.685Z,85.39
2023-01-13T07:31:12.700Z,85.46
2023-01-13T07:32:12.637Z,84.98
2023-01-13T07:33:12.662Z,87.30
2023-01-13T07:34:12.626Z,87.40
2023-01-13T07:35:12.605Z,86.48
2023-01-13T07:36:12.596Z,86.27
2023-01-13T07:37:12.589Z,87.04
2023-01-13T07:38:12.584Z,86.83
2023-01-13T07:39:12.555Z,86.42
2023-01-13T07:40:12.570Z,85.60
2023-01-13T07:41:12.534Z,85.80
2023-01-13T07:42:12.518Z,85.80
2023-01-13T07:43:12.525Z,85.90
2023-01-13T07:44:12.484Z,84.77
2023-01-13T07:45:12.563Z,85.70
2023-01-13T07:46:12.543Z,85.18
2023-01-13T07:47:12.440Z,85.60
2023-01-13T07:48:12.493Z,85.60
2023-01-13T07:49:12.417Z,85.49
2023-01-13T07:50:12.420Z,85.28
2023-01-13T07:51:12.383Z,85.39
2023-01-13T07:52:12.383Z,85.18
2023-01-13T07:53:12.385Z,84.26
2023-01-13T07:54:12.358Z,85.08
2023-01-13T07:55:12.349Z,85.08
2023-01-13T07:56:12.339Z,85.18
2023-01-13T07:57:12.309Z,84.47
2023-01-13T07:58:12.320Z,84.77
2023-01-13T07:59:12.294Z,84.36
2023-01-13T08:00:13.033Z,84.26
2023-01-13T08:01:12.483Z,84.16
2023-01-13T08:02:12.508Z,84.16
2023-01-13T08:03:12.248Z,83.75
2023-01-13T08:04:12.218Z,83.95
2023-01-13T08:05:12.232Z,83.75
2023-01-13T08:06:12.210Z,84.05
2023-01-13T08:07:12.178Z,83.95
2023-01-13T08:08:12.191Z,83.85
2023-01-13T08:09:12.151Z,84.05
2023-01-13T08:10:12.161Z,84.26
2023-01-13T08:11:12.127Z,84.05
2023-01-13T08:13:19.142Z,83.13
2023-01-13T08:14:12.087Z,83.33
2023-01-13T08:15:12.071Z,83.95
2023-01-13T08:16:12.175Z,82.51
2023-01-13T08:17:12.049Z,82.10
2023-01-13T08:18:12.064Z,83.03
2023-01-13T08:19:12.033Z,83.54
2023-01-13T08:20:12.012Z,83.33
2023-01-13T08:21:12.014Z,83.95
2023-01-13T08:22:11.982Z,83.95
2023-01-13T08:23:12.001Z,82.10
2023-01-13T08:24:11.971Z,82.47
2023-01-13T08:25:11.937Z,82.82
2023-01-13T08:26:11.935Z,83.44
2023-01-13T08:27:11.916Z,82.51
2023-01-13T08:28:11.921Z,83.61
2023-01-13T08:29:14.659Z,83.19
2023-01-13T08:30:11.891Z,83.09
2023-01-13T08:31:11.918Z,82.47
2023-01-13T08:32:11.853Z,83.09
2023-01-13T08:33:11.849Z,81.45
2023-01-13T08:34:11.845Z,82.99
2023-01-13T08:35:11.805Z,82.99
2023-01-13T08:36:11.796Z,82.68
2023-01-13T08:37:11.788Z,82.68
2023-01-13T08:38:11.782Z,82.06
2023-01-13T08:39:11.751Z,81.86
2023-01-13T08:40:11.752Z,82.89
2023-01-13T08:41:11.721Z,81.96
2023-01-13T08:42:11.718Z,82.99
2023-01-13T08:43:11.719Z,82.99
2023-01-13T08:44:11.687Z,82.06
2023-01-13T08:45:11.668Z,83.09
2023-01-13T08:46:11.767Z,82.17
2023-01-13T08:47:11.643Z,82.47
2023-01-13T08:48:11.654Z,81.96
2023-01-13T08:49:11.625Z,83.61
2023-01-13T08:50:11.605Z,83.09
2023-01-13T08:51:11.600Z,83.19
2023-01-13T08:52:11.595Z,82.89
2023-01-13T08:53:11.606Z,82.06
2023-01-13T08:54:11.560Z,83.61
2023-01-13T08:55:11.580Z,83.09
2023-01-13T08:56:11.530Z,83.61
2023-01-13T08:57:11.562Z,82.57
2023-01-13T08:58:15.701Z,82.78
2023-01-13T08:59:11.488Z,82.78
2023-01-13T09:00:11.479Z,82.57
2023-01-13T09:01:11.603Z,83.19
2023-01-13T09:02:11.565Z,82.68
2023-01-13T09:03:11.472Z,82.99
2023-01-13T09:04:11.495Z,84.39
2023-01-13T09:05:11.429Z,84.39
2023-01-13T09:06:11.403Z,84.39
2023-01-13T09:07:11.378Z,84.49
2023-01-13T09:08:11.399Z,84.08
2023-01-13T09:09:11.363Z,83.77
2023-01-13T09:10:11.372Z,85.82
2023-01-13T09:11:11.350Z,85.93
2023-01-13T09:12:11.329Z,86.24
2023-01-13T09:13:11.318Z,86.13
2023-01-13T09:14:11.299Z,86.44
2023-01-13T09:15:11.276Z,86.13
2023-01-13T09:16:11.327Z,85.93
2023-01-13T09:17:11.257Z,85.52
2023-01-13T09:18:11.290Z,86.65
2023-01-13T09:19:11.241Z,85.62
2023-01-13T09:20:11.228Z,85.93
2023-01-13T09:21:11.205Z,86.09
2023-01-13T09:22:11.190Z,85.58
2023-01-13T09:23:11.583Z,84.69
2023-01-13T09:24:11.173Z,86.30
2023-01-13T09:25:11.141Z,86.60
2023-01-13T09:26:11.139Z,87.02
2023-01-13T09:27:11.118Z,86.09
2023-01-13T09:28:11.128Z,87.63
2023-01-13T09:29:11.116Z,86.50
2023-01-13T09:30:11.073Z,85.89
2023-01-13T09:31:11.076Z,86.60
2023-01-13T09:32:11.074Z,86.71
2023-01-13T09:33:11.063Z,86.40
2023-01-13T09:34:11.034Z,86.60
2023-01-13T09:35:11.033Z,87.02
2023-01-13T09:36:11.002Z,86.91
2023-01-13T09:37:10.986Z,87.22
2023-01-13T09:38:10.999Z,88.24
2023-01-13T09:39:10.981Z,87.94
2023-01-13T09:40:10.943Z,87.32
2023-01-13T09:41:10.933Z,87.73
2023-01-13T09:42:10.919Z,86.60
2023-01-13T09:43:10.921Z,87.63
2023-01-13T09:44:10.893Z,88.35
2023-01-13T09:45:10.893Z,89.27
2023-01-13T09:46:10.922Z,88.86
2023-01-13T09:47:12.074Z,88.66
2023-01-13T09:48:10.881Z,88.45
2023-01-13T09:49:10.826Z,88.14
2023-01-13T09:50:10.812Z,88.04
2023-01-13T09:51:10.858Z,89.17
2023-01-13T09:52:10.813Z,88.96
2023-01-13T09:53:10.810Z,89.27
2023-01-13T09:54:10.779Z,88.62
2023-01-13T09:55:10.743Z,89.17
2023-01-13T09:56:10.742Z,88.96
2023-01-13T09:57:10.718Z,89.43
2023-01-13T09:58:10.739Z,89.58
2023-01-13T09:59:10.684Z,88.92
2023-01-13T10:00:10.696Z,89.37
2023-01-13T10:01:10.728Z,88.41
2023-01-13T10:02:10.655Z,88.31
2023-01-13T10:03:10.693Z,89.03
2023-01-13T10:04:10.632Z,89.84
2023-01-13T10:05:10.633Z,89.13
2023-01-13T10:06:10.608Z,88.92
2023-01-13T10:07:10.588Z,89.75
2023-01-13T10:08:10.611Z,89.13
2023-01-13T10:09:10.553Z,90.67
2023-01-13T10:10:10.553Z,90.05
2023-01-13T10:11:10.529Z,89.95
2023-01-13T10:12:10.559Z,90.46
2023-01-13T10:13:10.537Z,89.95
2023-01-13T10:14:10.546Z,90.73
2023-01-13T10:15:10.486Z,89.84
2023-01-13T10:16:10.526Z,89.60
2023-01-13T10:17:10.465Z,92.16
2023-01-13T10:18:10.444Z,91.14
2023-01-13T10:19:10.485Z,90.97
2023-01-13T10:20:10.434Z,90.62
2023-01-13T10:21:10.441Z,90.42
2023-01-13T10:22:10.420Z,90.01
2023-01-13T10:23:10.394Z,91.59
2023-01-13T10:24:10.390Z,89.64
2023-01-13T10:25:10.358Z,91.75
2023-01-13T10:26:10.451Z,91.14
2023-01-13T10:27:10.355Z,91.96
2023-01-13T10:28:10.324Z,91.44
2023-01-13T10:29:10.313Z,91.03
2023-01-13T10:30:10.290Z,91.65
2023-01-13T10:31:10.331Z,91.96
2023-01-13T10:32:10.278Z,91.14
2023-01-13T10:33:10.262Z,92.27
2023-01-13T10:34:10.274Z,93.39
2023-01-13T10:35:10.216Z,92.88
2023-01-13T10:36:10.212Z,92.88
2023-01-13T10:37:10.227Z,94.01
2023-01-13T10:38:10.198Z,93.39
2023-01-13T10:39:10.211Z,94.01
2023-01-13T10:40:10.162Z,93.86
2023-01-13T10:41:10.139Z,94.78
2023-01-13T10:42:10.131Z,94.07
2023-01-13T10:43:10.145Z,94.37
2023-01-13T10:44:10.140Z,94.54
2023-01-13T10:45:10.089Z,95.15
2023-01-13T10:46:10.090Z,94.54
2023-01-13T10:47:10.100Z,95.36
2023-01-13T10:48:10.056Z,95.87
2023-01-13T10:49:10.041Z,95.40
2023-01-13T10:50:10.071Z,94.23
2023-01-13T10:51:10.009Z,95.25
2023-01-13T10:52:10.050Z,94.54
2023-01-13T10:53:09.991Z,95.66
2023-01-13T10:54:09.990Z,95.36
2023-01-13T10:55:09.960Z,95.66
2023-01-13T10:56:09.956Z,95.15
2023-01-13T10:57:09.921Z,95.51
2023-01-13T10:58:09.913Z,94.39
2023-01-13T10:59:09.912Z,96.29
2023-01-13T11:00:09.920Z,94.85
2023-01-13T11:01:09.925Z,96.80
2023-01-13T11:02:24.180Z,96.39
2023-01-13T11:03:10.847Z,95.88
2023-01-13T11:04:09.862Z,96.29
2023-01-13T11:05:09.903Z,96.33
2023-01-13T11:06:09.813Z,95.62
2023-01-13T11:07:09.790Z,95.10
2023-01-13T11:08:09.782Z,96.54
2023-01-13T11:09:09.774Z,96.54
2023-01-13T11:10:09.753Z,95.92
2023-01-13T11:11:09.733Z,96.13
2023-01-13T11:12:09.733Z,94.84
2023-01-13T11:13:09.744Z,95.31
2023-01-13T11:14:10.226Z,95.87
2023-01-13T11:15:09.681Z,95.36
2023-01-13T11:16:09.707Z,96.07
2023-01-13T11:17:09.672Z,95.97
2023-01-13T11:18:09.646Z,95.76
2023-01-13T11:19:09.658Z,95.46
2023-01-13T11:20:09.632Z,96.07
2023-01-13T11:21:09.594Z,95.76
2023-01-13T11:22:09.588Z,95.25
2023-01-13T11:23:09.575Z,95.97
2023-01-13T11:24:09.587Z,96.69
2023-01-13T11:25:09.553Z,96.69
2023-01-13T11:26:09.553Z,95.76
2023-01-13T11:27:09.530Z,95.66
2023-01-13T11:28:09.517Z,97.09
2023-01-13T11:29:09.512Z,95.56
2023-01-13T11:30:09.495Z,96.17
2023-01-13T11:31:09.519Z,96.48
2023-01-13T11:32:09.482Z,96.38
2023-01-13T11:33:09.438Z,95.76
2023-01-13T11:34:09.449Z,96.32
2023-01-13T11:35:09.418Z,95.61
2023-01-13T11:36:09.409Z,95.20
2023-01-13T11:37:09.400Z,94.27
2023-01-13T11:38:09.374Z,95.50
2023-01-13T11:39:09.376Z,94.27
2023-01-13T11:40:09.359Z,93.66
2023-01-13T11:41:09.328Z,94.07
2023-01-13T11:42:09.326Z,93.86
2023-01-13T11:43:09.334Z,94.07
2023-01-13T11:44:09.309Z,94.37
2023-01-13T11:45:09.285Z,95.66
2023-01-13T11:46:09.320Z,95.46
2023-01-13T11:47:09.250Z,94.74
2023-01-13T11:48:09.258Z,95.76
2023-01-13T11:49:09.227Z,94.23
2023-01-13T11:50:09.244Z,95.76
2023-01-13T11:51:09.211Z,95.97
2023-01-13T11:52:09.187Z,95.61
2023-01-13T11:53:09.183Z,94.78
2023-01-13T11:54:09.171Z,94.89
2023-01-13T11:55:09.179Z,95.29
2023-01-13T11:56:09.138Z,94.43
2023-01-13T11:57:09.160Z,94.74
2023-01-13T11:58:09.108Z,94.43
2023-01-13T11:59:09.100Z,93.51
2023-01-13T12:00:09.119Z,94.43
2023-01-13T12:01:09.121Z,96.17
2023-01-13T12:02:09.248Z,94.64
2023-01-13T12:03:09.123Z,94.84
2023-01-13T12:04:09.043Z,94.48
2023-01-13T12:05:09.047Z,93.86
2023-01-13T12:06:09.011Z,94.02
2023-01-13T12:07:09.022Z,95.40
2023-01-13T12:08:09.004Z,94.07
2023-01-13T12:09:08.962Z,94.68
2023-01-13T12:10:13.230Z,94.37
2023-01-13T12:11:08.948Z,95.50
2023-01-13T12:12:08.921Z,94.68
2023-01-13T12:13:08.940Z,94.37
2023-01-13T12:14:08.887Z,94.48
2023-01-13T12:15:08.929Z,94.89
2023-01-13T12:16:08.912Z,94.48
2023-01-13T12:17:08.899Z,94.17
2023-01-13T12:18:08.840Z,95.29
2023-01-13T12:19:08.830Z,94.17
2023-01-13T12:20:08.827Z,94.95
2023-01-13T12:21:08.803Z,94.58
2023-01-13T12:22:08.797Z,94.78
2023-01-13T12:23:08.810Z,94.48
2023-01-13T12:24:08.787Z,94.74
2023-01-13T12:25:08.772Z,93.51
2023-01-13T12:26:08.730Z,93.35
2023-01-13T12:27:08.724Z,93.15
2023-01-13T12:28:08.712Z,91.50
2023-01-13T12:29:08.706Z,92.78
2023-01-13T12:30:08.703Z,91.14
2023-01-13T12:31:08.677Z,89.81
2023-01-13T12:32:08.671Z,89.60
2023-01-13T12:33:08.654Z,88.21
2023-01-13T12:34:08.665Z,87.79
2023-01-13T12:35:08.649Z,87.08
2023-01-13T12:36:08.606Z,87.18
2023-01-13T12:37:08.623Z,86.87
2023-01-13T12:38:08.589Z,86.98
2023-01-13T12:39:08.593Z,85.85
2023-01-13T12:40:08.561Z,84.61
2023-01-13T12:41:08.566Z,84.52
2023-01-13T12:42:08.522Z,84.82
2023-01-13T12:43:08.514Z,84.82
2023-01-13T12:44:08.505Z,86.36
2023-01-13T12:45:08.513Z,86.05
2023-01-13T12:46:08.537Z,85.64
2023-01-13T12:47:08.482Z,84.31
2023-01-13T12:48:08.465Z,83.90
2023-01-13T12:49:08.438Z,83.80
2023-01-13T12:50:08.455Z,83.80
2023-01-13T12:51:08.430Z,83.69
2023-01-13T12:52:08.415Z,81.68
2023-01-13T12:53:08.382Z,82.26
2023-01-13T12:54:08.376Z,80.24